Time;durP1;ratioP1;P1;durP2;ratioP2;P2;SDS_P1;SDS_P2;PMS_P1;PMS_P2;Temp;Humidity;BMP_temperature;BMP_pressure;BME280_temperature;BME280_humidity;BME280_pressure;Samples;Min_cycle;Max_cycle;Signal;HPM_P1;HPM_P2
2021/06/18 00:01:03;;;;;;;27.55;19.30;;;;;;;22.38;70.36;99073.19;5011939;28;20080;-62
2021/06/18 00:03:28;;;;;;;27.98;19.42;;;;;;;22.35;70.74;99077.38;5012749;28;20030;-63
2021/06/18 00:05:54;;;;;;;26.50;17.52;;;;;;;22.33;70.38;99073.38;5012047;28;20041;-63
2021/06/18 00:08:19;;;;;;;28.70;16.25;;;;;;;22.32;69.58;99082.69;5012875;28;20045;-63
2021/06/18 00:10:44;;;;;;;31.67;14.15;;;;;;;22.30;68.90;99084.94;5012297;28;20034;-63
2021/06/18 00:13:10;;;;;;;26.88;16.83;;;;;;;22.32;68.92;99082.69;5012594;28;20392;-63
2021/06/18 00:15:35;;;;;;;22.75;15.27;;;;;;;22.23;68.95;99082.69;5010944;28;20514;-63
2021/06/18 00:18:01;;;;;;;20.83;12.63;;;;;;;22.12;69.40;99090.41;5012476;28;20400;-63
2021/06/18 00:20:26;;;;;;;27.70;12.35;;;;;;;22.37;67.29;99096.19;5012014;28;20062;-63
2021/06/18 00:22:52;;;;;;;23.50;11.82;;;;;;;22.33;67.56;99095.22;5012606;28;20040;-63
2021/06/18 00:25:17;;;;;;;25.02;12.10;;;;;;;22.36;67.08;99091.84;5011934;28;20030;-63
2021/06/18 00:27:43;;;;;;;30.58;11.30;;;;;;;22.34;66.80;99094.91;5012473;28;20025;-63
2021/06/18 00:30:09;;;;;;;22.55;11.05;;;;;;;22.36;66.50;99089.91;5012035;28;20058;-63
2021/06/18 00:32:35;;;;;;;22.00;11.98;;;;;;;22.41;66.68;99094.38;5012443;28;20038;-63
2021/06/18 00:35:00;;;;;;;22.92;12.88;;;;;;;22.34;67.51;99094.06;5012315;28;20465;-63
2021/06/18 00:37:25;;;;;;;34.15;20.38;;;;;;;21.84;71.37;99094.56;5011884;28;20499;-63
2021/06/18 00:39:51;;;;;;;27.38;19.50;;;;;;;21.36;74.03;99081.81;5012210;28;20034;-62
2021/06/18 00:42:16;;;;;;;32.85;18.63;;;;;;;21.49;73.60;99091.78;5012738;28;20042;-62
2021/06/18 00:44:42;;;;;;;31.35;18.70;;;;;;;21.57;72.79;99085.56;5015928;28;20087;-62
2021/06/18 00:47:15;;;;;;;26.38;13.20;;;;;;;21.69;70.72;99093.94;5015421;28;20103;-63
2021/06/18 00:49:40;;;;;;;27.42;12.90;;;;;;;21.77;69.53;99092.34;5015922;28;20040;-63
2021/06/18 00:52:06;;;;;;;22.75;12.55;;;;;;;21.75;70.31;99103.56;5015346;28;20403;-63
2021/06/18 00:54:31;;;;;;;21.98;15.82;;;;;;;21.72;71.09;99104.19;5014667;28;20045;-63
2021/06/18 00:56:57;;;;;;;23.95;17.35;;;;;;;21.52;71.76;99104.81;5014077;28;20030;-62
2021/06/18 00:59:23;;;;;;;31.40;17.30;;;;;;;21.45;72.71;99101.75;5015495;28;20439;-62
2021/06/18 01:01:49;;;;;;;27.60;17.13;;;;;;;21.42;72.40;99105.91;5015231;28;20097;-62
2021/06/18 01:04:14;;;;;;;28.15;17.15;;;;;;;21.26;73.16;99104.69;5015552;28;20087;-62
2021/06/18 01:06:39;;;;;;;31.02;16.83;;;;;;;21.17;73.88;99110.13;5013960;28;20038;-63
2021/06/18 01:09:07;;;;;;;30.83;15.23;;;;;;;21.09;73.44;99109.00;4998079;28;20495;-63
2021/06/18 01:11:35;;;;;;;22.95;13.57;;;;;;;21.05;73.08;99107.22;5013978;28;20124;-63
2021/06/18 01:14:15;;;;;;;22.88;14.27;;;;;;;21.00;73.75;99107.34;5015627;28;20056;-63
2021/06/18 01:16:48;;;;;;;24.85;14.63;;;;;;;21.04;73.48;99105.59;5013810;28;20496;-64
2021/06/18 01:19:28;;;;;;;27.45;13.02;;;;;;;21.15;71.80;99104.19;5015351;28;20373;-63
2021/06/18 01:21:58;;;;;;;27.13;13.43;;;;;;;21.17;72.21;99098.41;5013659;28;20068;-63
2021/06/18 01:24:29;;;;;;;;;;;;;;;21.09;72.18;99097.25;5015618;28;20057;-63
2021/06/18 01:26:57;;;;;;;21.50;12.93;;;;;;;21.07;72.59;99096.81;5013591;28;19917;-63
2021/06/18 01:29:23;;;;;;;18.23;12.95;;;;;;;21.08;72.83;99096.47;5015184;28;20021;-64
2021/06/18 01:31:49;;;;;;;27.75;12.55;;;;;;;20.89;72.87;99091.28;5014554;28;20041;-62
2021/06/18 01:34:17;;;;;;;23.27;11.60;;;;;;;20.88;72.89;99099.75;5013802;28;20579;-62
2021/06/18 01:36:44;;;;;;;20.58;11.85;;;;;;;20.87;72.93;99085.34;4997246;28;20438;-62
2021/06/18 01:39:10;;;;;;;29.00;13.02;;;;;;;20.92;72.64;99091.75;5013749;28;20018;-62
2021/06/18 01:41:35;;;;;;;26.30;12.45;;;;;;;20.92;72.85;99087.13;4997022;28;20061;-62
2021/06/18 01:44:01;;;;;;;28.55;12.25;;;;;;;21.00;72.21;99088.28;4997240;28;20022;-62
2021/06/18 01:46:30;;;;;;;24.23;13.55;;;;;;;20.94;72.74;99082.16;5014423;28;20034;-63
2021/06/18 01:49:09;;;;;;;30.67;14.98;;;;;;;20.87;73.05;99082.63;5013759;28;20025;-62
2021/06/18 01:51:35;;;;;;;33.10;15.75;;;;;;;20.73;73.64;99079.19;5014306;28;20045;-62
2021/06/18 01:54:00;;;;;;;27.77;14.63;;;;;;;20.64;74.46;99075.59;5013841;28;20117;-62
2021/06/18 01:56:26;;;;;;;28.17;13.90;;;;;;;20.72;74.17;99063.16;5014081;28;20041;-62
2021/06/18 01:58:54;;;;;;;26.13;16.38;;;;;;;20.64;74.58;99062.81;5014392;28;20356;-62
2021/06/18 02:01:19;;;;;;;21.83;15.15;;;;;;;20.66;74.19;99062.50;4996867;28;20041;-62
2021/06/18 02:03:45;;;;;;;35.88;17.25;;;;;;;20.61;74.58;99055.25;5013336;28;20093;-62
2021/06/18 02:06:11;;;;;;;22.58;15.23;;;;;;;20.55;74.43;99056.50;4996515;28;20053;-61
2021/06/18 02:08:37;;;;;;;26.50;14.55;;;;;;;20.48;74.85;99054.19;5013153;28;20026;-62
2021/06/18 02:11:03;;;;;;;24.73;14.45;;;;;;;20.44;75.31;99045.06;5012831;28;20176;-62
2021/06/18 02:13:29;;;;;;;25.77;16.63;;;;;;;20.45;75.24;99048.59;5013186;28;20034;-62
2021/06/18 02:15:55;;;;;;;24.20;15.35;;;;;;;20.48;75.15;99048.75;5013879;28;20037;-62
2021/06/18 02:18:22;;;;;;;25.55;15.82;;;;;;;20.38;75.24;99051.75;5014196;28;20063;-61
2021/06/18 02:20:48;;;;;;;29.80;14.15;;;;;;;20.25;75.34;99042.53;4996583;28;20088;-62
2021/06/18 02:23:14;;;;;;;34.60;14.23;;;;;;;20.25;75.17;99045.28;5012840;28;20033;-61
2021/06/18 02:25:40;;;;;;;25.73;13.80;;;;;;;20.09;75.84;99045.94;4996052;28;20076;-62
2021/06/18 02:28:06;;;;;;;24.73;13.45;;;;;;;19.83;76.95;99049.28;4996546;28;20029;-62
2021/06/18 02:30:31;;;;;;;25.35;13.32;;;;;;;19.93;76.12;99050.97;5012459;28;20041;-62
2021/06/18 02:32:57;;;;;;;28.15;14.55;;;;;;;19.86;77.36;99056.81;5012634;28;20421;-62
2021/06/18 02:35:23;;;;;;;37.63;20.70;;;;;;;19.98;79.67;99062.53;5012168;28;20144;-62
2021/06/18 02:37:48;;;;;;;41.58;22.58;;;;;;;20.32;79.30;99063.88;5012249;28;20026;-62
2021/06/18 02:40:14;;;;;;;48.55;22.80;;;;;;;20.29;79.44;99069.94;5012266;28;20029;-61
2021/06/18 02:42:39;;;;;;;43.08;22.85;;;;;;;20.19;79.74;99070.19;4996187;28;20026;-63
2021/06/18 02:45:06;;;;;;;40.22;21.60;;;;;;;20.10;80.18;99066.63;5013318;28;20391;-62
2021/06/18 02:47:31;;;;;;;38.72;22.95;;;;;;;20.12;79.71;99072.53;5012574;28;20129;-63
2021/06/18 02:50:08;;;;;;;47.17;22.17;;;;;;;20.14;80.25;99068.38;5013730;28;20061;-63
2021/06/18 02:52:52;;;;;;;31.63;21.77;;;;;;;20.09;80.17;99065.00;5013116;28;20050;-62
2021/06/18 02:55:29;;;;;;;38.75;22.65;;;;;;;20.05;80.49;99056.66;5013218;28;20030;-62
2021/06/18 02:58:07;;;;;;;30.10;20.33;;;;;;;20.15;79.74;99052.88;4996409;28;20104;-62
2021/06/18 03:00:33;;;;;;;30.10;20.77;;;;;;;20.08;79.81;99063.41;4995666;28;20042;-63
2021/06/18 03:02:59;;;;;;;31.83;20.08;;;;;;;20.09;79.25;99060.34;5012340;28;20120;-62
2021/06/18 03:05:26;;;;;;;30.58;17.52;;;;;;;20.11;77.75;99063.56;5013188;28;20038;-62
2021/06/18 03:07:58;;;;;;;36.97;19.02;;;;;;;19.85;78.41;99074.28;5013535;28;20109;-62
2021/06/18 03:10:27;;;;;;;35.90;19.65;;;;;;;19.85;79.89;99068.84;5012960;28;20522;-62
2021/06/18 03:13:09;;;;;;;33.03;21.35;;;;;;;19.83;81.41;99079.22;5013195;28;20468;-62
2021/06/18 03:15:37;;;;;;;31.10;21.85;;;;;;;19.93;80.70;99083.59;5011524;28;20062;-62
2021/06/18 03:18:02;;;;;;;34.30;22.88;;;;;;;19.87;81.45;99096.53;5013225;28;20458;-62
2021/06/18 03:20:28;;;;;;;37.70;22.90;;;;;;;19.81;81.63;99086.88;4979002;28;20129;-62
2021/06/18 03:22:56;;;;;;;32.85;23.80;;;;;;;19.77;81.95;99083.16;4995485;28;20026;-62
2021/06/18 03:25:22;;;;;;;37.10;23.70;;;;;;;19.73;82.21;99090.31;4995362;28;20527;-63
2021/06/18 03:27:48;;;;;;;35.20;23.48;;;;;;;19.60;83.14;99084.56;5011873;28;20022;-62
2021/06/18 03:30:14;;;;;;;31.98;22.63;;;;;;;19.70;82.77;99085.50;4994933;28;20361;-62
2021/06/18 03:32:39;;;;;;;40.97;22.60;;;;;;;19.91;82.12;99085.81;4995638;28;20473;-62
2021/06/18 03:35:06;;;;;;;24.67;19.92;;;;;;;20.12;80.43;99088.84;5011387;28;20026;-62
2021/06/18 03:37:31;;;;;;;30.05;21.55;;;;;;;20.29;79.33;99086.25;4995440;28;20091;-62
2021/06/18 03:39:56;;;;;;;32.67;21.33;;;;;;;20.51;78.24;99087.38;5012855;28;20034;-62
2021/06/18 03:42:22;;;;;;;31.92;19.58;;;;;;;20.52;78.16;99092.50;5011143;28;20046;-63
2021/06/18 03:44:48;;;;;;;25.63;18.67;;;;;;;20.76;76.70;99100.34;4995506;28;20547;-63
2021/06/18 03:47:13;;;;;;;34.20;18.65;;;;;;;20.94;75.44;99101.22;4994707;28;20459;-63
2021/06/18 03:49:38;;;;;;;34.47;17.38;;;;;;;21.30;73.88;99103.75;4995354;28;20068;-62
2021/06/18 03:52:04;;;;;;;26.15;15.32;;;;;;;21.12;73.12;99096.66;5012245;28;20045;-62
2021/06/18 03:54:32;;;;;;;27.33;16.60;;;;;;;21.67;71.96;99098.91;4995170;28;20201;-63
2021/06/18 03:56:58;;;;;;;24.33;14.88;;;;;;;21.94;70.51;99103.25;4995071;28;20124;-63
2021/06/18 03:59:24;;;;;;;28.48;14.80;;;;;;;22.54;67.68;99107.06;5011309;28;20054;-62
2021/06/18 04:01:53;;;;;;;31.00;14.80;;;;;;;22.93;66.08;99107.91;4994749;28;20092;-63
2021/06/18 04:04:22;;;;;;;29.30;15.23;;;;;;;23.48;63.90;99117.16;4995418;28;20037;-63
2021/06/18 04:06:48;;;;;;;27.13;14.15;;;;;;;23.00;65.96;99119.16;5012236;28;20034;-63
2021/06/18 04:09:14;;;;;;;27.33;14.13;;;;;;;23.92;62.80;99119.66;5011373;28;20088;-63
2021/06/18 04:11:39;;;;;;;28.30;13.82;;;;;;;24.08;61.58;99123.38;5010850;28;20034;-63
2021/06/18 04:14:06;;;;;;;26.65;12.95;;;;;;;23.93;62.18;99126.72;5012531;28;20484;-63
2021/06/18 04:16:32;;;;;;;31.30;13.05;;;;;;;24.49;59.70;99128.03;5010869;28;20555;-63
2021/06/18 04:18:57;;;;;;;24.73;13.80;;;;;;;23.62;63.32;99122.41;5014890;28;20041;-63
2021/06/18 04:21:23;;;;;;;20.75;13.85;;;;;;;23.80;62.56;99118.44;5014961;28;20038;-63
2021/06/18 04:23:49;;;;;;;24.48;13.40;;;;;;;25.37;57.78;99116.88;5016626;28;20040;-63
2021/06/18 04:26:14;;;;;;;25.70;13.80;;;;;;;25.73;56.66;99120.69;5014924;28;20061;-63
2021/06/18 04:28:40;;;;;;;24.35;13.38;;;;;;;25.33;58.28;99115.94;5016787;28;20036;-64
2021/06/18 04:31:06;;;;;;;23.75;13.93;;;;;;;26.86;53.21;99119.59;5016324;28;20037;-62
2021/06/18 04:33:32;;;;;;;26.95;13.68;;;;;;;27.32;52.13;99125.47;5016286;28;20409;-62
2021/06/18 04:35:57;;;;;;;21.70;13.27;;;;;;;27.85;50.35;99135.31;5016053;28;20072;-62
2021/06/18 04:38:23;;;;;;;23.50;13.70;;;;;;;27.94;50.42;99133.16;5016291;28;20026;-63
2021/06/18 04:40:49;;;;;;;24.00;12.88;;;;;;;28.33;49.09;99136.72;5015642;28;20042;-63
2021/06/18 04:43:15;;;;;;;27.27;13.50;;;;;;;28.53;48.06;99137.53;5015376;28;20025;-63
2021/06/18 04:45:40;;;;;;;21.38;13.65;;;;;;;28.62;48.37;99144.78;5015659;28;20045;-63
2021/06/18 04:48:06;;;;;;;31.48;13.25;;;;;;;28.78;47.99;99153.72;4998779;28;20052;-63
2021/06/18 04:50:32;;;;;;;22.90;13.05;;;;;;;28.42;49.25;99155.00;5015844;28;20145;-63
2021/06/18 04:52:58;;;;;;;23.85;14.25;;;;;;;28.14;50.18;99154.03;5014924;28;20084;-63
2021/06/18 04:55:24;;;;;;;23.92;15.02;;;;;;;28.02;50.76;99156.94;5014296;28;20488;-62
2021/06/18 04:57:49;;;;;;;21.60;14.07;;;;;;;29.26;46.78;99151.44;5016133;28;20030;-63
2021/06/18 05:00:16;;;;;;;20.75;13.90;;;;;;;30.68;43.56;99157.31;5015384;28;20038;-63
2021/06/18 05:02:41;;;;;;;27.00;14.15;;;;;;;30.64;43.42;99156.47;5016165;28;20069;-63
2021/06/18 05:05:07;;;;;;;24.23;14.57;;;;;;;29.91;45.19;99157.94;5015398;28;20481;-63
2021/06/18 05:07:33;;;;;;;26.00;14.68;;;;;;;30.01;45.18;99163.59;5015510;28;20022;-63
2021/06/18 05:09:58;;;;;;;32.35;14.27;;;;;;;30.86;43.14;99173.34;5015456;28;20037;-63
2021/06/18 05:12:23;;;;;;;23.27;13.93;;;;;;;30.96;42.89;99167.09;5014959;28;20052;-63
2021/06/18 05:14:49;;;;;;;22.23;14.35;;;;;;;30.51;43.78;99180.03;5015621;28;20362;-63
2021/06/18 05:17:14;;;;;;;25.15;13.52;;;;;;;30.07;43.67;99167.63;5014991;28;20057;-63
2021/06/18 05:19:40;;;;;;;23.75;15.00;;;;;;;27.45;51.30;99183.16;5015425;28;20436;-63
2021/06/18 05:22:06;;;;;;;24.10;15.10;;;;;;;29.87;44.52;99172.50;5013670;28;20045;-63
2021/06/18 05:24:31;;;;;;;23.50;14.00;;;;;;;30.55;43.26;99163.47;5014066;28;20026;-63
2021/06/18 05:26:56;;;;;;;27.15;13.65;;;;;;;28.49;47.51;99164.22;5015082;28;20042;-63
2021/06/18 05:29:22;;;;;;;21.85;13.98;;;;;;;29.23;46.12;99163.19;5012950;28;20255;-63
2021/06/18 05:31:47;;;;;;;26.10;14.35;;;;;;;30.35;43.81;99171.16;5014701;28;20034;-63
2021/06/18 05:34:13;;;;;;;21.85;13.95;;;;;;;27.83;49.08;99170.69;5015301;28;20465;-63
2021/06/18 05:36:39;;;;;;;30.15;15.15;;;;;;;28.03;49.12;99169.56;5014692;28;20583;-63
2021/06/18 05:39:05;;;;;;;25.95;14.15;;;;;;;27.67;48.84;99165.97;5013781;28;20457;-63
2021/06/18 05:41:30;;;;;;;22.40;15.30;;;;;;;27.77;49.82;99161.06;5014803;28;20041;-63
2021/06/18 05:43:56;;;;;;;25.83;14.70;;;;;;;28.04;48.77;99162.09;5015194;28;20051;-63
2021/06/18 05:46:21;;;;;;;26.23;15.45;;;;;;;27.67;50.10;99157.72;5014308;28;20029;-63
2021/06/18 05:48:47;;;;;;;25.20;15.25;;;;;;;28.08;48.96;99150.00;5014944;28;20030;-63
2021/06/18 05:51:12;;;;;;;25.35;15.35;;;;;;;28.29;48.99;99146.88;5014619;28;20038;-63
2021/06/18 05:53:37;;;;;;;20.95;14.95;;;;;;;28.57;47.68;99160.44;5014830;28;20030;-62
2021/06/18 05:56:03;;;;;;;28.65;15.18;;;;;;;29.99;44.19;99154.09;5014254;28;20038;-63
2021/06/18 05:58:28;;;;;;;23.17;15.18;;;;;;;31.47;41.17;99163.59;5013849;28;20022;-63
2021/06/18 06:00:54;;;;;;;23.02;14.98;;;;;;;32.52;39.39;99171.31;5014322;28;20488;-63
2021/06/18 06:03:20;;;;;;;27.55;13.85;;;;;;;32.95;37.73;99167.81;5013370;28;20032;-63
2021/06/18 06:05:45;;;;;;;22.50;13.15;;;;;;;33.57;36.70;99172.25;5012990;28;20053;-62
2021/06/18 06:08:11;;;;;;;22.45;13.60;;;;;;;33.59;35.69;99156.75;5014510;28;20030;-62
2021/06/18 06:10:37;;;;;;;24.73;13.68;;;;;;;35.01;33.36;99156.56;5014106;28;20037;-63
2021/06/18 06:13:02;;;;;;;26.23;13.48;;;;;;;34.10;34.86;99158.25;5014546;28;20045;-62
2021/06/18 06:15:28;;;;;;;19.58;13.60;;;;;;;35.33;32.11;99156.31;5014374;28;20034;-63
2021/06/18 06:17:53;;;;;;;22.77;13.65;;;;;;;37.16;28.81;99159.69;5014531;28;20460;-62
2021/06/18 06:20:18;;;;;;;28.95;13.88;;;;;;;36.35;31.22;99162.44;5012905;28;20491;-63
2021/06/18 06:22:44;;;;;;;25.98;14.30;;;;;;;36.21;31.64;99160.63;5014487;28;20029;-63
2021/06/18 06:25:10;;;;;;;30.00;15.10;;;;;;;35.35;32.50;99142.78;5014248;28;20034;-63
2021/06/18 06:27:36;;;;;;;35.42;15.35;;;;;;;35.50;32.83;99145.44;5013029;28;20022;-63
2021/06/18 06:30:01;;;;;;;54.85;20.38;;;;;;;32.71;38.44;99139.66;5013912;28;20072;-63
2021/06/18 06:32:26;;;;;;;53.13;22.10;;;;;;;31.13;43.21;99138.00;5012876;28;20022;-62
2021/06/18 06:34:52;;;;;;;57.30;22.67;;;;;;;30.42;45.19;99141.63;5014304;28;20040;-63
2021/06/18 06:37:17;;;;;;;52.50;21.98;;;;;;;31.61;42.23;99145.50;5013368;28;20030;-62
2021/06/18 06:39:43;;;;;;;53.03;21.85;;;;;;;31.14;42.84;99140.38;5013904;28;20026;-64
2021/06/18 06:42:08;;;;;;;50.00;20.77;;;;;;;30.82;44.29;99140.09;5012545;28;20050;-62
2021/06/18 06:44:34;;;;;;;49.08;21.02;;;;;;;29.72;46.90;99140.31;5014103;28;20091;-62
2021/06/18 06:46:59;;;;;;;39.85;20.38;;;;;;;32.96;39.47;99147.22;5013479;28;20034;-62
2021/06/18 06:49:25;;;;;;;40.25;20.15;;;;;;;32.49;39.91;99149.13;5014018;28;20021;-62
2021/06/18 06:51:51;;;;;;;42.08;20.75;;;;;;;29.71;46.42;99135.19;5013320;28;20484;-62
2021/06/18 06:54:17;;;;;;;49.60;20.58;;;;;;;30.37;44.34;99128.13;5013818;28;20064;-62
2021/06/18 06:56:42;;;;;;;42.85;21.30;;;;;;;27.54;52.29;99132.25;5013402;28;20034;-62
2021/06/18 06:59:07;;;;;;;37.05;21.50;;;;;;;27.74;52.59;99135.06;5012247;28;20050;-62
2021/06/18 07:01:33;;;;;;;45.58;22.08;;;;;;;31.15;43.75;99144.75;5013327;28;20073;-62
2021/06/18 07:04:00;;;;;;;51.45;21.45;;;;;;;32.62;40.30;99151.13;5013742;28;20558;-62
2021/06/18 07:06:26;;;;;;;52.05;20.20;;;;;;;34.45;36.10;99153.72;5013335;28;20473;-62
2021/06/18 07:08:51;;;;;;;39.60;19.58;;;;;;;34.88;35.10;99150.69;5012661;28;20041;-63
2021/06/18 07:11:17;;;;;;;54.90;20.40;;;;;;;33.23;37.58;99153.22;5013194;28;20038;-63
2021/06/18 07:13:43;;;;;;;43.22;17.85;;;;;;;35.95;32.89;99156.53;4996233;28;20084;-63
2021/06/18 07:16:11;;;;;;;41.30;18.88;;;;;;;36.57;31.23;99152.59;5013218;28;20104;-62
2021/06/18 07:18:36;;;;;;;41.60;18.17;;;;;;;36.83;31.33;99158.59;5013532;28;20030;-63
2021/06/18 07:21:02;;;;;;;42.25;18.77;;;;;;;36.03;32.22;99156.00;5012940;28;20038;-63
2021/06/18 07:23:27;;;;;;;50.13;20.52;;;;;;;33.73;36.62;99142.84;5013201;28;20026;-62
2021/06/18 07:25:53;;;;;;;61.50;19.73;;;;;;;32.26;39.84;99147.44;5011489;28;20443;-63
2021/06/18 07:28:18;;;;;;;48.55;20.40;;;;;;;30.76;43.21;99151.88;5013399;28;20022;-64
2021/06/18 07:30:44;;;;;;;53.53;18.85;;;;;;;31.21;42.13;99149.94;5012907;28;20447;-63
2021/06/18 07:33:09;;;;;;;54.25;18.55;;;;;;;30.26;44.49;99144.59;5013482;28;20034;-65
2021/06/18 07:35:35;;;;;;;56.58;18.52;;;;;;;30.92;42.28;99144.91;5011455;28;20132;-63
2021/06/18 07:38:01;;;;;;;44.97;17.23;;;;;;;30.41;43.13;99150.31;5013117;28;20026;-63
2021/06/18 07:40:26;;;;;;;47.15;18.20;;;;;;;28.96;45.77;99154.84;5012973;28;20037;-62
2021/06/18 07:42:52;;;;;;;54.67;19.83;;;;;;;28.15;47.93;99155.63;5013265;28;20026;-62
2021/06/18 07:45:17;;;;;;;48.95;18.40;;;;;;;28.36;47.74;99144.25;5012810;28;20380;-62
2021/06/18 07:47:43;;;;;;;48.72;18.00;;;;;;;28.10;48.16;99152.38;5013208;28;20440;-62
2021/06/18 07:50:13;;;;;;;49.60;17.88;;;;;;;28.47;46.86;99151.97;5012553;28;20527;-62
2021/06/18 07:52:38;;;;;;;48.58;16.13;;;;;;;28.62;46.68;99150.28;5014595;28;20538;-63
2021/06/18 07:55:06;;;;;;;25.25;14.20;;;;;;;30.88;40.41;99157.16;5016929;28;20053;-63
2021/06/18 07:57:31;;;;;;;46.08;14.27;;;;;;;33.22;35.20;99157.94;5017190;28;20026;-63
2021/06/18 07:59:57;;;;;;;36.78;14.02;;;;;;;34.98;31.33;99151.81;5016880;28;20034;-62
2021/06/18 08:02:22;;;;;;;39.42;14.55;;;;;;;34.14;32.39;99150.66;5016489;28;20046;-63
2021/06/18 08:04:48;;;;;;;40.38;13.65;;;;;;;32.72;33.95;99152.34;5017098;28;20052;-63
2021/06/18 08:07:13;;;;;;;38.88;13.98;;;;;;;33.79;33.64;99146.00;5016496;28;20034;-64
2021/06/18 08:09:39;;;;;;;54.78;15.18;;;;;;;31.12;37.64;99142.72;5015773;28;20425;-63
2021/06/18 08:12:04;;;;;;;43.83;13.48;;;;;;;30.49;38.20;99144.47;5016250;28;20388;-61
2021/06/18 08:14:30;;;;;;;32.00;13.80;;;;;;;29.35;41.57;99143.69;5016838;28;20484;-62
2021/06/18 08:16:55;;;;;;;36.72;13.45;;;;;;;28.46;43.45;99142.91;5016345;28;20057;-62
2021/06/18 08:19:21;;;;;;;36.05;13.75;;;;;;;28.85;43.02;99147.53;5016712;28;20069;-62
2021/06/18 08:21:46;;;;;;;39.25;14.95;;;;;;;28.02;45.49;99156.94;5016176;28;20030;-63
2021/06/18 08:24:12;;;;;;;37.55;14.63;;;;;;;28.02;45.75;99151.44;5015920;28;20033;-63
2021/06/18 08:26:37;;;;;;;43.70;14.98;;;;;;;28.24;45.78;99141.66;5016437;28;20033;-65
2021/06/18 08:29:03;;;;;;;57.40;17.42;;;;;;;28.15;46.41;99154.84;5016607;28;20459;-63
2021/06/18 08:31:28;;;;;;;53.75;17.20;;;;;;;28.01;47.23;99163.63;5016074;28;20038;-63
2021/06/18 08:33:53;;;;;;;53.00;16.40;;;;;;;28.60;46.83;99167.19;5016279;28;20029;-63
2021/06/18 08:36:22;;;;;;;54.28;18.88;;;;;;;28.46;49.80;99175.19;5015490;28;20034;-63
2021/06/18 08:38:47;;;;;;;80.25;20.52;;;;;;;28.00;52.74;99173.03;5016640;28;20067;-62
2021/06/18 08:41:13;;;;;;;70.15;21.45;;;;;;;27.94;55.31;99179.97;5014788;28;20042;-63
2021/06/18 08:43:38;;;;;;;84.97;22.65;;;;;;;27.87;55.65;99172.34;5016170;28;20038;-62
2021/06/18 08:46:04;;;;;;;76.38;23.48;;;;;;;28.27;53.76;99159.41;4998119;28;20034;-63
2021/06/18 08:48:30;;;;;;;80.50;25.85;;;;;;;27.22;55.81;99152.72;5016039;28;20029;-63
2021/06/18 08:50:57;;;;;;;92.13;23.65;;;;;;;27.45;53.96;99150.13;5015583;28;20045;-63
2021/06/18 08:53:22;;;;;;;70.07;22.67;;;;;;;27.58;53.17;99154.34;5014937;28;20411;-63
2021/06/18 08:55:49;;;;;;;71.28;21.75;;;;;;;27.70;52.55;99164.47;5014430;28;20092;-63
2021/06/18 08:58:14;;;;;;;63.28;19.80;;;;;;;27.86;50.68;99164.47;5015779;28;20057;-63
2021/06/18 09:00:42;;;;;;;69.00;20.50;;;;;;;27.93;51.14;99167.34;5015226;28;20057;-63
2021/06/18 09:03:41;;;;;;;77.93;19.70;;;;;;;27.88;51.06;99162.13;4998106;28;20025;-62
2021/06/18 09:06:23;;;;;;;;;;;;;;;28.29;50.13;99154.34;5003967;28;20516;-62
2021/06/18 09:09:07;;;;;;;86.30;21.27;;;;;;;28.31;50.71;99152.03;5015938;28;20328;-62
2021/06/18 09:11:37;;;;;;;78.97;20.38;;;;;;;28.40;49.90;99161.66;5015204;28;20042;-62
2021/06/18 09:14:28;;;;;;;64.82;19.00;;;;;;;28.35;49.59;99152.88;5015743;28;20136;-63
2021/06/18 09:17:12;;;;;;;60.72;19.92;;;;;;;28.89;48.55;99154.72;5015225;28;20065;-64
2021/06/18 09:19:52;;;;;;;62.80;21.42;;;;;;;28.48;49.19;99135.06;5014380;28;20037;-63
2021/06/18 09:22:20;;;;;;;69.25;21.42;;;;;;;27.45;52.92;99148.16;5015003;28;20052;-62
2021/06/18 09:24:49;;;;;;;52.13;20.90;;;;;;;27.20;53.14;99144.81;5015444;28;20034;-62
2021/06/18 09:27:14;;;;;;;68.78;20.58;;;;;;;28.01;51.93;99149.84;5013605;28;20034;-62
2021/06/18 09:29:40;;;;;;;53.42;20.65;;;;;;;27.88;52.85;99162.13;5015325;28;20113;-62
2021/06/18 09:32:06;;;;;;;71.50;22.38;;;;;;;27.36;52.93;99166.00;5014638;28;20421;-62
2021/06/18 09:34:48;;;;;;;49.63;20.08;;;;;;;27.64;51.74;99166.69;5014693;28;20041;-62
2021/06/18 09:37:22;;;;;;;65.30;20.27;;;;;;;27.99;51.46;99174.19;5013583;28;20045;-62
2021/06/18 09:40:09;;;;;;;46.42;19.95;;;;;;;27.63;52.12;99178.88;5015119;28;20061;-62
2021/06/18 09:42:56;;;;;;;53.42;19.17;;;;;;;27.43;52.72;99169.75;5014825;28;20046;-62
2021/06/18 09:45:31;;;;;;;53.40;20.35;;;;;;;27.39;53.01;99168.88;5014703;28;20494;-63
2021/06/18 09:48:16;;;;;;;66.18;20.77;;;;;;;27.39;53.51;99166.13;5015002;28;20479;-63
2021/06/18 09:50:43;;;;;;;41.83;19.65;;;;;;;26.81;54.29;99171.28;5014626;28;20042;-63
2021/06/18 09:53:15;;;;;;;55.58;19.70;;;;;;;26.76;54.43;99166.84;5014731;28;20034;-64
2021/06/18 09:55:45;;;;;;;56.33;19.42;;;;;;;26.75;54.38;99173.50;5014650;28;20480;-63
2021/06/18 09:58:11;;;;;;;55.35;19.42;;;;;;;26.57;54.89;99177.72;5015083;28;20021;-62
2021/06/18 10:00:36;;;;;;;59.22;20.10;;;;;;;26.77;54.56;99171.19;5012753;28;20064;-63
2021/06/18 10:03:02;;;;;;;52.78;19.15;;;;;;;27.28;52.35;99171.38;5014746;28;20535;-62
2021/06/18 10:05:32;;;;;;;58.15;21.30;;;;;;;28.00;51.34;99169.47;5014220;28;20054;-63
2021/06/18 10:07:58;;;;;;;48.55;17.40;;;;;;;28.36;50.48;99171.03;5014051;28;20480;-62
2021/06/18 10:10:24;;;;;;;52.15;19.33;;;;;;;28.28;50.19;99175.59;5013834;28;20042;-62
2021/06/18 10:12:50;;;;;;;49.20;17.88;;;;;;;27.90;52.03;99170.84;5014618;28;20022;-62
2021/06/18 10:15:20;;;;;;;46.38;17.13;;;;;;;28.48;50.48;99162.66;5013222;28;20060;-63
2021/06/18 10:17:46;;;;;;;59.05;17.10;;;;;;;30.53;44.96;99172.97;5014061;28;20377;-64
2021/06/18 10:20:23;;;;;;;39.53;15.65;;;;;;;31.98;40.54;99167.50;5012450;28;20068;-62
2021/06/18 10:22:58;;;;;;;46.40;15.50;;;;;;;32.21;39.58;99161.66;5013873;28;20061;-61
2021/06/18 10:25:35;;;;;;;31.25;13.48;;;;;;;32.37;36.70;99170.44;5012557;28;20081;-62
2021/06/18 10:28:09;;;;;;;27.40;12.55;;;;;;;31.74;37.90;99166.16;5012681;28;20018;-61
2021/06/18 10:30:50;;;;;;;34.08;12.35;;;;;;;30.12;39.99;99166.50;5013311;28;20038;-61
2021/06/18 10:33:28;;;;;;;34.92;12.15;;;;;;;29.15;42.62;99175.28;5013741;28;20388;-62
2021/06/18 10:36:03;;;;;;;33.92;12.00;;;;;;;29.34;41.70;99169.69;5013278;28;20037;-62
2021/06/18 10:38:36;;;;;;;28.38;11.80;;;;;;;29.72;40.71;99173.47;5012522;28;20550;-62
2021/06/18 10:41:04;;;;;;;36.05;10.77;;;;;;;32.00;35.88;99174.25;5013184;28;20121;-62
2021/06/18 10:43:55;;;;;;;35.78;11.00;;;;;;;31.24;35.72;99176.84;5012505;28;20030;-62
2021/06/18 10:46:43;;;;;;;28.85;8.98;;;;;;;31.75;33.05;99168.53;5013103;28;20125;-62
2021/06/18 10:49:15;;;;;;;30.02;9.00;;;;;;;30.50;35.89;99167.38;5013775;28;20361;-62
2021/06/18 10:51:47;;;;;;;37.50;10.38;;;;;;;31.34;35.24;99163.06;5013165;28;20116;-62
2021/06/18 10:54:28;;;;;;;25.02;9.13;;;;;;;31.86;33.83;99157.50;5012731;28;20044;-62
2021/06/18 10:56:53;;;;;;;23.30;8.25;;;;;;;31.49;34.22;99158.47;5011411;28;20046;-64
2021/06/18 10:59:28;;;;;;;28.08;9.07;;;;;;;31.65;33.88;99151.84;5013293;28;20446;-64
2021/06/18 11:01:54;;;;;;;31.83;9.70;;;;;;;32.52;33.31;99148.31;5012953;28;20399;-63
2021/06/18 11:04:41;;;;;;;33.47;9.25;;;;;;;31.04;34.17;99146.63;5012154;28;20030;-64
2021/06/18 11:07:28;;;;;;;29.00;10.15;;;;;;;32.51;33.73;99138.44;5012854;28;20042;-62
2021/06/18 11:10:15;;;;;;;28.33;10.73;;;;;;;33.05;33.21;99136.53;5013468;28;20037;-62
2021/06/18 11:12:48;;;;;;;35.53;11.57;;;;;;;33.64;33.01;99134.13;5013274;28;20128;-61
2021/06/18 11:15:16;;;;;;;40.63;13.35;;;;;;;32.96;34.94;99138.91;5012526;28;20030;-62
2021/06/18 11:17:48;;;;;;;44.75;14.02;;;;;;;32.49;36.35;99135.25;5013596;28;20112;-62
2021/06/18 11:20:18;;;;;;;31.50;13.13;;;;;;;31.50;37.06;99137.91;5011646;28;20034;-63